Ponciano Arriaga International Airport
MMSP : now visible

Airfield :











YOU CAN JOIN US ON...

 
LOGIN :

Register | Disclaimer

   EN    FR    IT 

 









Legend :    VFR   Marginal VFR   IFR   Intensive IFR   Very Intensive IFR
Visi :
Ceiling :
>= 8 km
>= 3000ft
5 to 8 km
1000 to 3000 ft
1500m to 5 km
500 to 1000 ft
800 to 1500m
200 to 500 ft
< 800m
< 200 ft
Symbols :   Thunderstorms  Fog  Heavy snow  Heavy precipitations  Wind > 20 kt







- Airport Elevation : 6035 ft
- IATA code : SLP


MMSP - Ponciano Arriaga International

CURRENT METAR :
  • 260650Z 00000KT 8SM SCT230 17/14 A3026 RMK 8/001 AC

EXPIRED METARs :
  • 260545Z 00000KT 8SM SCT230 18/14 A3027 RMK SLP121 52028 925 8/001 AC
  • 260440Z 00000KT 8SM FEW080 SCT230 18/13 A3025 RMK 8/031
  • 260343Z 16004KT 8SM FEW030 SCT080 SCT230 19/13 A3022 RMK 8/461

TAF TAF MMSP
Valid from the 26 at 06:00 until the 27 at 12:00 UTC


260443Z 2606/2712 16005KT P6SM SCT020 TX28/2621Z TN16/2612Z
TEMPO 2610/2614 BKN020
FM261600 13010KT P6SM SCT020 SCT100
FM270200 16005KT P6SM SCT020 BKN080
MMFR FIR / North America



MET'MAP, your aeronautical weather chart ! - Copyright ORBIFLY December 2007 - Disclaimer

ORBIFLY MET'MAP TEAM :

Programming & Development : Alexandra Zaïnal
Concept & Development : Baudouin d'Aumeries
Co-Development & Prog : Marc-Olivier Méhu
Technical & hardware support : Manuel Goepfert

Contact : metmap@orbifly.com




SOURCES & CREDITS :

   NOAA       Earth
Advisory